Wild Rice, North Dakota
Current Conditions -  °F | °C
As of 6:54 AM on Friday 31 Oct 2014 (Local Time) from KJKJ Reporting Station
Clear Clear  
Wind Chill: -9°   Ceiling: Unl
Heat Index: -9°   Visibility: 10mi
Dew Point: -9°   Wind: 3mph
Humidity: 100%   Direction: 350°N
Pressure: 30.62"   Gusts: NA
Location:  46.7039°N, 96.8572°W
Report Text: KJKJ 311154Z AUTO 35003KT 10SM CLR M09/M09 A3062 RMK AO2
Loading
Personal Weather Stations






























Interactive Weather Map
Tropical Storm Tracking
New forecast layout! Learn more

10-Day Weather Forecast

Advertisements
Track Severe Weather on mobile